createdAt,value
2022-10-26T00:03:43.761Z,86.42
2022-10-26T00:08:46.337Z,87.00
2022-10-26T00:13:48.635Z,86.61
2022-10-26T00:18:50.860Z,86.47
2022-10-26T00:23:52.658Z,86.60
2022-10-26T00:28:55.406Z,86.76
2022-10-26T00:33:57.417Z,86.57
2022-10-26T00:38:58.969Z,86.08
2022-10-26T00:44:01.152Z,86.30
2022-10-26T00:49:09.129Z,86.41
2022-10-26T00:54:15.419Z,86.12
2022-10-26T00:59:17.916Z,85.71
2022-10-26T01:04:20.158Z,85.70
2022-10-26T01:09:22.720Z,85.79
2022-10-26T01:14:27.113Z,85.56
2022-10-26T01:19:31.762Z,85.52
2022-10-26T01:24:45.502Z,85.63
2022-10-26T01:30:08.346Z,85.76
2022-10-26T01:35:15.508Z,85.90
2022-10-26T01:40:19.755Z,85.89
2022-10-26T01:45:21.448Z,85.76
2022-10-26T01:50:23.588Z,85.95
2022-10-26T01:55:49.540Z,86.31
2022-10-26T02:01:11.141Z,86.11
2022-10-26T02:06:35.192Z,85.84
2022-10-26T02:11:41.040Z,85.61
2022-10-26T02:16:48.349Z,85.91
2022-10-26T02:21:57.560Z,85.51
2022-10-26T02:27:00.219Z,85.43
2022-10-26T02:32:03.580Z,85.50
2022-10-26T02:37:07.517Z,85.44
2022-10-26T02:42:09.830Z,85.38
2022-10-26T02:47:12.076Z,85.19
2022-10-26T02:52:36.779Z,85.24
2022-10-26T02:57:41.178Z,85.07
2022-10-26T03:02:47.660Z,85.51
2022-10-26T03:07:50.256Z,84.99
2022-10-26T03:12:52.447Z,85.22
2022-10-26T03:17:54.164Z,85.07
2022-10-26T03:22:57.137Z,85.01
2022-10-26T03:27:59.991Z,84.91
2022-10-26T03:33:01.624Z,84.88
2022-10-26T03:38:03.227Z,84.95
2022-10-26T03:43:04.780Z,84.86
2022-10-26T03:48:06.333Z,84.73
2022-10-26T03:53:08.410Z,84.90
2022-10-26T03:58:09.992Z,85.04
2022-10-26T04:03:11.548Z,84.80
2022-10-26T04:08:13.196Z,84.94
2022-10-26T04:13:14.931Z,84.90
2022-10-26T04:18:16.756Z,84.96
2022-10-26T04:23:19.576Z,84.98
2022-10-26T04:28:21.181Z,85.14
2022-10-26T04:33:22.726Z,85.37
2022-10-26T04:38:24.259Z,85.79
2022-10-26T04:43:25.943Z,85.78
2022-10-26T04:48:27.481Z,85.57
2022-10-26T04:53:30.548Z,85.35
2022-10-26T04:58:32.141Z,84.95
2022-10-26T05:03:33.676Z,85.64
2022-10-26T05:08:35.241Z,86.35
2022-10-26T05:13:36.816Z,85.43
2022-10-26T05:18:38.374Z,85.16
2022-10-26T05:23:39.909Z,85.06
2022-10-26T05:28:41.445Z,85.01
2022-10-26T05:33:43.040Z,84.88
2022-10-26T05:38:44.883Z,84.84
2022-10-26T05:43:48.509Z,85.08
2022-10-26T05:48:50.166Z,85.09
2022-10-26T05:53:54.408Z,85.46
2022-10-26T05:58:56.094Z,85.48
2022-10-26T06:04:29.448Z,85.68
2022-10-26T06:09:31.364Z,85.75
2022-10-26T06:14:33.917Z,85.48
2022-10-26T06:20:06.018Z,86.27
2022-10-26T06:25:45.947Z,86.37
2022-10-26T06:30:47.598Z,86.95
2022-10-26T06:35:58.797Z,87.31
2022-10-26T06:41:01.547Z,87.09
2022-10-26T06:46:34.140Z,87.21
2022-10-26T06:51:46.077Z,87.47
2022-10-26T06:56:48.573Z,87.66
2022-10-26T07:01:50.244Z,87.68
2022-10-26T07:06:51.990Z,87.82
2022-10-26T07:11:53.573Z,88.28
2022-10-26T07:16:57.058Z,88.19
2022-10-26T07:22:00.233Z,88.11
2022-10-26T07:27:01.897Z,87.91
2022-10-26T07:32:03.561Z,87.65
2022-10-26T07:37:05.191Z,87.61
2022-10-26T07:42:06.783Z,87.28
2022-10-26T07:47:08.340Z,87.00
2022-10-26T07:52:10.913Z,86.51
2022-10-26T07:57:12.454Z,86.08
2022-10-26T08:02:14.227Z,85.82
2022-10-26T08:07:15.797Z,84.89
2022-10-26T08:12:17.552Z,84.68
2022-10-26T08:17:20.846Z,84.05
2022-10-26T08:22:22.383Z,83.47
2022-10-26T08:27:23.923Z,83.33
2022-10-26T08:32:25.552Z,82.80
2022-10-26T08:37:27.764Z,81.76
2022-10-26T08:42:43.086Z,80.88
2022-10-26T08:47:50.561Z,80.85
2022-10-26T08:53:18.758Z,80.37
2022-10-26T08:58:26.059Z,80.07
2022-10-26T09:03:27.652Z,79.97
2022-10-26T09:08:51.000Z,79.81
2022-10-26T09:14:09.131Z,79.35
2022-10-26T09:19:35.595Z,78.14
2022-10-26T09:24:42.314Z,78.77
2022-10-26T09:29:44.507Z,78.54
2022-10-26T09:34:46.015Z,77.52
2022-10-26T09:40:05.638Z,77.68
2022-10-26T09:45:16.694Z,76.46
2022-10-26T09:50:29.198Z,76.47
2022-10-26T09:55:39.476Z,76.46
2022-10-26T10:00:42.882Z,75.28
2022-10-26T10:05:52.755Z,75.81
2022-10-26T10:11:13.890Z,75.35
2022-10-26T10:16:25.031Z,75.41
2022-10-26T10:21:38.038Z,74.69
2022-10-26T10:26:57.806Z,75.24
2022-10-26T10:32:01.776Z,75.05
2022-10-26T10:37:05.224Z,73.82
2022-10-26T10:42:18.331Z,73.49
2022-10-26T10:47:23.992Z,72.86
2022-10-26T10:52:29.660Z,73.21
2022-10-26T10:57:54.265Z,73.38
2022-10-26T11:03:04.523Z,71.75
2022-10-26T11:08:16.236Z,71.18
2022-10-26T11:13:24.308Z,71.53
2022-10-26T11:18:37.549Z,70.59
2022-10-26T11:23:45.780Z,70.47
2022-10-26T11:29:05.845Z,70.18
2022-10-26T11:34:25.232Z,69.30
2022-10-26T11:39:53.404Z,68.77
2022-10-26T11:45:27.141Z,66.18
2022-10-26T11:50:40.107Z,67.64
2022-10-26T11:55:43.133Z,68.70
2022-10-26T12:00:59.434Z,68.21
2022-10-26T12:06:01.168Z,66.50
2022-10-26T12:11:13.695Z,64.95
2022-10-26T12:16:33.197Z,64.72
2022-10-26T12:21:35.312Z,65.18
2022-10-26T12:26:36.803Z,66.39
2022-10-26T12:31:38.376Z,64.92
2022-10-26T12:36:55.112Z,66.68
2022-10-26T12:42:09.530Z,66.70
2022-10-26T12:47:31.021Z,66.95
2022-10-26T12:53:08.412Z,66.70
2022-10-26T12:58:31.468Z,66.70
2022-10-26T13:03:48.123Z,66.17
2022-10-26T13:08:58.636Z,63.35
2022-10-26T13:14:07.609Z,65.36
2022-10-26T13:19:26.913Z,65.29
2022-10-26T13:24:31.458Z,65.41
2022-10-26T13:29:53.515Z,64.52
2022-10-26T13:34:57.741Z,64.87
2022-10-26T13:40:00.345Z,65.15
2022-10-26T13:45:28.035Z,64.36
2022-10-26T13:50:49.317Z,64.37
2022-10-26T13:55:54.218Z,64.70
2022-10-26T14:01:15.468Z,64.59
2022-10-26T14:06:19.884Z,64.86
2022-10-26T14:11:27.020Z,65.05
2022-10-26T14:16:31.409Z,65.51
2022-10-26T14:21:33.028Z,65.48
2022-10-26T14:26:41.628Z,65.26
2022-10-26T14:31:43.219Z,65.22
2022-10-26T14:37:02.437Z,65.71
2022-10-26T14:42:36.150Z,66.27
2022-10-26T14:47:49.271Z,66.43
2022-10-26T14:52:57.347Z,66.61
2022-10-26T14:58:17.154Z,67.05
2022-10-26T15:03:18.761Z,67.32
2022-10-26T15:08:56.304Z,67.77
2022-10-26T15:13:59.615Z,67.88
2022-10-26T15:19:09.771Z,68.05
2022-10-26T15:24:20.628Z,68.50
2022-10-26T15:29:45.399Z,68.66
2022-10-26T15:35:06.896Z,68.83
2022-10-26T15:40:08.692Z,69.10
2022-10-26T15:45:26.133Z,69.34
2022-10-26T15:50:29.149Z,69.77
2022-10-26T15:55:30.958Z,70.00
2022-10-26T16:00:32.524Z,70.31
2022-10-26T16:05:34.155Z,71.13
2022-10-26T16:10:35.743Z,71.66
2022-10-26T16:15:37.391Z,72.23
2022-10-26T16:20:39.111Z,72.91
2022-10-26T16:25:43.992Z,73.44
2022-10-26T16:30:45.650Z,73.92
2022-10-26T16:35:55.362Z,74.34
2022-10-26T16:41:10.413Z,74.06
2022-10-26T16:46:20.218Z,74.20
2022-10-26T16:51:27.053Z,73.87
2022-10-26T16:56:30.247Z,73.89
2022-10-26T17:01:32.413Z,74.58
2022-10-26T17:06:34.050Z,74.90
2022-10-26T17:11:35.643Z,75.08
2022-10-26T17:16:37.184Z,75.72
2022-10-26T17:21:38.748Z,75.71
2022-10-26T17:26:41.738Z,75.93
2022-10-26T17:31:43.286Z,76.09
2022-10-26T17:36:44.849Z,76.73
2022-10-26T17:41:46.632Z,76.80
2022-10-26T17:46:48.204Z,77.21
2022-10-26T17:51:49.740Z,77.56
2022-10-26T17:56:51.273Z,77.73
2022-10-26T18:01:52.931Z,78.16
2022-10-26T18:06:54.586Z,78.37
2022-10-26T18:11:56.571Z,78.19
2022-10-26T18:16:58.234Z,78.50
2022-10-26T18:22:00.536Z,78.66
2022-10-26T18:27:02.127Z,78.80
2022-10-26T18:32:03.859Z,78.80
2022-10-26T18:37:05.406Z,79.06
2022-10-26T18:42:06.986Z,79.02
2022-10-26T18:47:08.521Z,79.05
2022-10-26T18:52:10.116Z,79.23
2022-10-26T18:57:11.684Z,79.34
2022-10-26T19:02:14.743Z,79.55
2022-10-26T19:07:16.944Z,80.05
2022-10-26T19:12:18.549Z,80.63
2022-10-26T19:17:22.032Z,80.61
2022-10-26T19:22:23.660Z,80.53
2022-10-26T19:27:25.233Z,80.81
2022-10-26T19:32:28.762Z,81.18
2022-10-26T19:37:30.736Z,81.33
2022-10-26T19:42:32.304Z,81.60
2022-10-26T19:47:33.865Z,81.37
2022-10-26T19:52:36.599Z,81.50
2022-10-26T19:57:38.249Z,81.49
2022-10-26T20:02:39.858Z,81.61
2022-10-26T20:07:41.415Z,81.78
2022-10-26T20:12:42.952Z,82.00
2022-10-26T20:17:44.514Z,82.10
2022-10-26T20:22:46.109Z,82.25
2022-10-26T20:27:48.492Z,81.99
2022-10-26T20:32:50.231Z,82.11
2022-10-26T20:37:53.162Z,82.28
2022-10-26T20:42:55.430Z,82.34
2022-10-26T20:47:58.926Z,82.63
2022-10-26T20:53:10.790Z,82.77
2022-10-26T20:58:20.515Z,82.74
2022-10-26T21:03:22.185Z,82.81
2022-10-26T21:08:23.814Z,83.24
2022-10-26T21:13:25.412Z,83.52
2022-10-26T21:18:26.983Z,83.68
2022-10-26T21:23:36.653Z,83.64
2022-10-26T21:28:45.820Z,83.83
2022-10-26T21:33:48.204Z,83.43
2022-10-26T21:38:49.794Z,83.08
2022-10-26T21:44:03.219Z,83.21
2022-10-26T21:49:11.363Z,83.32
2022-10-26T21:54:12.904Z,83.41
2022-10-26T21:59:14.473Z,83.50
2022-10-26T22:04:16.017Z,83.53
2022-10-26T22:09:17.796Z,83.50
2022-10-26T22:14:20.031Z,83.36
2022-10-26T22:19:21.597Z,83.73
2022-10-26T22:24:23.195Z,84.24
2022-10-26T22:29:24.766Z,84.08
2022-10-26T22:34:26.362Z,83.87
2022-10-26T22:39:27.890Z,84.18
2022-10-26T22:44:29.439Z,84.15
2022-10-26T22:49:30.968Z,84.28
2022-10-26T22:54:32.539Z,84.62
2022-10-26T22:59:34.088Z,84.74
2022-10-26T23:04:35.683Z,85.34
2022-10-26T23:09:37.229Z,85.67
2022-10-26T23:14:38.757Z,85.88
2022-10-26T23:19:40.285Z,86.00
2022-10-26T23:24:41.840Z,86.11
2022-10-26T23:34:45.867Z,86.45
2022-10-26T23:39:47.404Z,86.76
2022-10-26T23:44:48.932Z,86.90
2022-10-26T23:49:50.515Z,86.73
2022-10-26T23:54:52.053Z,86.47
2022-10-26T23:59:53.832Z,87.14
